sensor_id;sensor_type;location;lat;lon;timestamp;P1;durP1;ratioP1;P2;durP2;ratioP2
5475;SDS011;2760;50.000;9.194;2023-03-01T00:01:48;32.40;;;16.00;;
5475;SDS011;2760;50.000;9.194;2023-03-01T00:04:17;29.63;;;13.27;;
5475;SDS011;2760;50.000;9.194;2023-03-01T00:06:44;27.87;;;14.10;;
5475;SDS011;2760;50.000;9.194;2023-03-01T00:09:12;26.13;;;14.07;;
5475;SDS011;2760;50.000;9.194;2023-03-01T00:11:40;25.87;;;12.70;;
5475;SDS011;2760;50.000;9.194;2023-03-01T00:14:11;21.00;;;13.27;;
5475;SDS011;2760;50.000;9.194;2023-03-01T00:16:39;26.17;;;14.50;;
5475;SDS011;2760;50.000;9.194;2023-03-01T00:19:08;24.87;;;14.13;;
5475;SDS011;2760;50.000;9.194;2023-03-01T00:21:41;27.53;;;13.87;;
5475;SDS011;2760;50.000;9.194;2023-03-01T00:24:09;22.47;;;11.97;;
5475;SDS011;2760;50.000;9.194;2023-03-01T00:26:36;22.67;;;13.63;;
5475;SDS011;2760;50.000;9.194;2023-03-01T00:29:04;19.80;;;12.93;;
5475;SDS011;2760;50.000;9.194;2023-03-01T00:31:32;23.27;;;13.70;;
5475;SDS011;2760;50.000;9.194;2023-03-01T00:34:04;23.13;;;12.10;;
5475;SDS011;2760;50.000;9.194;2023-03-01T00:36:33;25.13;;;12.70;;
5475;SDS011;2760;50.000;9.194;2023-03-01T00:39:04;21.30;;;11.23;;
5475;SDS011;2760;50.000;9.194;2023-03-01T00:41:34;17.93;;;11.07;;
5475;SDS011;2760;50.000;9.194;2023-03-01T00:44:01;20.60;;;11.77;;
5475;SDS011;2760;50.000;9.194;2023-03-01T00:46:29;18.00;;;11.20;;
5475;SDS011;2760;50.000;9.194;2023-03-01T00:48:57;18.20;;;11.73;;
5475;SDS011;2760;50.000;9.194;2023-03-01T00:51:27;23.30;;;11.23;;
5475;SDS011;2760;50.000;9.194;2023-03-01T00:53:56;24.57;;;12.90;;
5475;SDS011;2760;50.000;9.194;2023-03-01T00:56:27;26.47;;;14.70;;
5475;SDS011;2760;50.000;9.194;2023-03-01T00:58:54;28.70;;;13.23;;
5475;SDS011;2760;50.000;9.194;2023-03-01T01:01:23;25.43;;;13.17;;
5475;SDS011;2760;50.000;9.194;2023-03-01T01:03:54;21.77;;;12.60;;
5475;SDS011;2760;50.000;9.194;2023-03-01T01:06:25;22.40;;;11.80;;
5475;SDS011;2760;50.000;9.194;2023-03-01T01:08:54;21.37;;;12.87;;
5475;SDS011;2760;50.000;9.194;2023-03-01T01:11:23;22.63;;;13.10;;
5475;SDS011;2760;50.000;9.194;2023-03-01T01:13:53;19.40;;;13.00;;
5475;SDS011;2760;50.000;9.194;2023-03-01T01:16:22;26.80;;;13.20;;
5475;SDS011;2760;50.000;9.194;2023-03-01T01:18:50;19.20;;;11.60;;
5475;SDS011;2760;50.000;9.194;2023-03-01T01:21:18;20.30;;;11.80;;
5475;SDS011;2760;50.000;9.194;2023-03-01T01:23:49;21.10;;;11.47;;
5475;SDS011;2760;50.000;9.194;2023-03-01T01:26:18;26.30;;;13.17;;
5475;SDS011;2760;50.000;9.194;2023-03-01T01:28:48;17.00;;;11.67;;
5475;SDS011;2760;50.000;9.194;2023-03-01T01:31:17;18.70;;;11.27;;
5475;SDS011;2760;50.000;9.194;2023-03-01T01:33:46;21.93;;;13.80;;
5475;SDS011;2760;50.000;9.194;2023-03-01T01:36:14;24.73;;;14.20;;
5475;SDS011;2760;50.000;9.194;2023-03-01T01:38:41;22.37;;;13.23;;
5475;SDS011;2760;50.000;9.194;2023-03-01T01:41:09;20.83;;;13.70;;
5475;SDS011;2760;50.000;9.194;2023-03-01T01:43:39;20.07;;;12.80;;
5475;SDS011;2760;50.000;9.194;2023-03-01T01:46:10;23.20;;;12.93;;
5475;SDS011;2760;50.000;9.194;2023-03-01T01:48:48;23.63;;;13.33;;
5475;SDS011;2760;50.000;9.194;2023-03-01T01:51:20;24.20;;;11.57;;
5475;SDS011;2760;50.000;9.194;2023-03-01T01:53:53;19.27;;;12.57;;
5475;SDS011;2760;50.000;9.194;2023-03-01T01:56:22;21.00;;;11.40;;
5475;SDS011;2760;50.000;9.194;2023-03-01T01:58:50;22.93;;;11.87;;
5475;SDS011;2760;50.000;9.194;2023-03-01T02:01:19;24.67;;;12.60;;
5475;SDS011;2760;50.000;9.194;2023-03-01T02:03:48;18.47;;;12.53;;
5475;SDS011;2760;50.000;9.194;2023-03-01T02:06:17;26.73;;;12.37;;
5475;SDS011;2760;50.000;9.194;2023-03-01T02:08:49;21.20;;;13.03;;
5475;SDS011;2760;50.000;9.194;2023-03-01T02:11:19;18.10;;;11.90;;
5475;SDS011;2760;50.000;9.194;2023-03-01T02:13:48;26.80;;;13.97;;
5475;SDS011;2760;50.000;9.194;2023-03-01T02:16:16;22.73;;;13.00;;
5475;SDS011;2760;50.000;9.194;2023-03-01T02:18:53;23.40;;;12.70;;
5475;SDS011;2760;50.000;9.194;2023-03-01T02:21:26;22.80;;;12.63;;
5475;SDS011;2760;50.000;9.194;2023-03-01T02:24:07;20.80;;;13.40;;
5475;SDS011;2760;50.000;9.194;2023-03-01T02:26:47;24.00;;;13.30;;
5475;SDS011;2760;50.000;9.194;2023-03-01T02:29:21;20.47;;;12.67;;
5475;SDS011;2760;50.000;9.194;2023-03-01T02:31:50;22.63;;;12.90;;
5475;SDS011;2760;50.000;9.194;2023-03-01T02:34:22;22.03;;;12.43;;
5475;SDS011;2760;50.000;9.194;2023-03-01T02:36:53;22.03;;;13.20;;
5475;SDS011;2760;50.000;9.194;2023-03-01T02:39:23;21.10;;;13.37;;
5475;SDS011;2760;50.000;9.194;2023-03-01T02:41:54;23.90;;;12.80;;
5475;SDS011;2760;50.000;9.194;2023-03-01T02:44:25;22.80;;;13.13;;
5475;SDS011;2760;50.000;9.194;2023-03-01T02:46:53;23.27;;;13.73;;
5475;SDS011;2760;50.000;9.194;2023-03-01T02:49:24;22.17;;;13.30;;
5475;SDS011;2760;50.000;9.194;2023-03-01T02:54:48;23.90;;;13.10;;
5475;SDS011;2760;50.000;9.194;2023-03-01T02:57:21;20.00;;;11.57;;
5475;SDS011;2760;50.000;9.194;2023-03-01T02:59:51;22.33;;;13.00;;
5475;SDS011;2760;50.000;9.194;2023-03-01T03:02:20;24.47;;;13.70;;
5475;SDS011;2760;50.000;9.194;2023-03-01T03:05:06;22.93;;;12.73;;
5475;SDS011;2760;50.000;9.194;2023-03-01T03:07:36;22.90;;;13.33;;
5475;SDS011;2760;50.000;9.194;2023-03-01T03:10:08;24.70;;;13.73;;
5475;SDS011;2760;50.000;9.194;2023-03-01T03:12:37;18.63;;;11.60;;
5475;SDS011;2760;50.000;9.194;2023-03-01T03:15:08;20.83;;;12.50;;
5475;SDS011;2760;50.000;9.194;2023-03-01T03:17:38;25.73;;;13.57;;
5475;SDS011;2760;50.000;9.194;2023-03-01T03:20:07;22.93;;;13.30;;
5475;SDS011;2760;50.000;9.194;2023-03-01T03:22:37;21.53;;;11.50;;
5475;SDS011;2760;50.000;9.194;2023-03-01T03:25:05;23.57;;;13.40;;
5475;SDS011;2760;50.000;9.194;2023-03-01T03:27:35;26.50;;;13.67;;
5475;SDS011;2760;50.000;9.194;2023-03-01T03:30:03;23.13;;;13.77;;
5475;SDS011;2760;50.000;9.194;2023-03-01T03:32:35;25.47;;;13.97;;
5475;SDS011;2760;50.000;9.194;2023-03-01T03:35:04;22.10;;;12.30;;
5475;SDS011;2760;50.000;9.194;2023-03-01T03:37:35;24.00;;;13.73;;
5475;SDS011;2760;50.000;9.194;2023-03-01T03:40:20;24.17;;;13.03;;
5475;SDS011;2760;50.000;9.194;2023-03-01T03:42:47;29.23;;;13.30;;
5475;SDS011;2760;50.000;9.194;2023-03-01T03:45:16;26.27;;;14.23;;
5475;SDS011;2760;50.000;9.194;2023-03-01T03:47:48;21.63;;;11.97;;
5475;SDS011;2760;50.000;9.194;2023-03-01T03:50:16;25.20;;;13.33;;
5475;SDS011;2760;50.000;9.194;2023-03-01T03:52:44;22.83;;;13.93;;
5475;SDS011;2760;50.000;9.194;2023-03-01T03:55:11;19.90;;;13.00;;
5475;SDS011;2760;50.000;9.194;2023-03-01T03:57:39;22.23;;;12.43;;
5475;SDS011;2760;50.000;9.194;2023-03-01T04:00:08;23.27;;;14.03;;
5475;SDS011;2760;50.000;9.194;2023-03-01T04:02:38;26.17;;;14.90;;
5475;SDS011;2760;50.000;9.194;2023-03-01T04:05:10;20.80;;;12.73;;
5475;SDS011;2760;50.000;9.194;2023-03-01T04:07:39;20.93;;;12.83;;
5475;SDS011;2760;50.000;9.194;2023-03-01T04:10:09;20.23;;;11.70;;
5475;SDS011;2760;50.000;9.194;2023-03-01T04:12:38;27.27;;;15.87;;
5475;SDS011;2760;50.000;9.194;2023-03-01T04:15:06;22.23;;;11.87;;
5475;SDS011;2760;50.000;9.194;2023-03-01T04:17:38;21.63;;;12.60;;
5475;SDS011;2760;50.000;9.194;2023-03-01T04:20:09;30.90;;;13.27;;
5475;SDS011;2760;50.000;9.194;2023-03-01T04:22:37;28.03;;;14.00;;
5475;SDS011;2760;50.000;9.194;2023-03-01T04:25:06;24.37;;;14.07;;
5475;SDS011;2760;50.000;9.194;2023-03-01T04:27:39;30.53;;;14.37;;
5475;SDS011;2760;50.000;9.194;2023-03-01T04:30:07;35.20;;;15.70;;
5475;SDS011;2760;50.000;9.194;2023-03-01T04:32:35;31.30;;;14.60;;
5475;SDS011;2760;50.000;9.194;2023-03-01T04:35:03;26.80;;;14.73;;
5475;SDS011;2760;50.000;9.194;2023-03-01T04:37:32;32.23;;;15.50;;
5475;SDS011;2760;50.000;9.194;2023-03-01T04:40:00;29.23;;;15.10;;
5475;SDS011;2760;50.000;9.194;2023-03-01T04:42:31;24.20;;;13.70;;
5475;SDS011;2760;50.000;9.194;2023-03-01T04:44:58;28.50;;;16.40;;
5475;SDS011;2760;50.000;9.194;2023-03-01T04:47:26;31.60;;;16.03;;
5475;SDS011;2760;50.000;9.194;2023-03-01T04:49:53;31.37;;;15.20;;
5475;SDS011;2760;50.000;9.194;2023-03-01T04:52:20;24.30;;;14.10;;
5475;SDS011;2760;50.000;9.194;2023-03-01T04:54:48;25.30;;;14.23;;
5475;SDS011;2760;50.000;9.194;2023-03-01T04:57:17;25.63;;;14.30;;
5475;SDS011;2760;50.000;9.194;2023-03-01T04:59:45;27.77;;;15.20;;
5475;SDS011;2760;50.000;9.194;2023-03-01T05:02:12;26.80;;;14.70;;
5475;SDS011;2760;50.000;9.194;2023-03-01T05:04:39;21.13;;;13.03;;
5475;SDS011;2760;50.000;9.194;2023-03-01T05:07:06;25.53;;;15.40;;
5475;SDS011;2760;50.000;9.194;2023-03-01T05:09:35;23.17;;;12.57;;
5475;SDS011;2760;50.000;9.194;2023-03-01T05:12:05;22.77;;;13.57;;
5475;SDS011;2760;50.000;9.194;2023-03-01T05:14:32;24.43;;;13.63;;
5475;SDS011;2760;50.000;9.194;2023-03-01T05:16:59;24.70;;;12.73;;
5475;SDS011;2760;50.000;9.194;2023-03-01T05:19:29;21.67;;;13.20;;
5475;SDS011;2760;50.000;9.194;2023-03-01T05:21:56;26.60;;;14.50;;
5475;SDS011;2760;50.000;9.194;2023-03-01T05:24:31;23.43;;;13.20;;
5475;SDS011;2760;50.000;9.194;2023-03-01T05:27:00;25.13;;;13.20;;
5475;SDS011;2760;50.000;9.194;2023-03-01T05:29:30;24.87;;;14.50;;
5475;SDS011;2760;50.000;9.194;2023-03-01T05:32:02;30.23;;;13.73;;
5475;SDS011;2760;50.000;9.194;2023-03-01T05:34:30;28.30;;;14.73;;
5475;SDS011;2760;50.000;9.194;2023-03-01T05:37:00;26.73;;;13.37;;
5475;SDS011;2760;50.000;9.194;2023-03-01T05:39:28;22.80;;;13.00;;
5475;SDS011;2760;50.000;9.194;2023-03-01T05:41:58;27.37;;;16.90;;
5475;SDS011;2760;50.000;9.194;2023-03-01T05:44:28;24.07;;;13.93;;
5475;SDS011;2760;50.000;9.194;2023-03-01T05:46:57;33.13;;;12.50;;
5475;SDS011;2760;50.000;9.194;2023-03-01T05:49:24;23.47;;;13.90;;
5475;SDS011;2760;50.000;9.194;2023-03-01T05:51:52;27.30;;;14.30;;
5475;SDS011;2760;50.000;9.194;2023-03-01T05:54:27;29.40;;;15.73;;
5475;SDS011;2760;50.000;9.194;2023-03-01T05:56:54;25.13;;;14.80;;
5475;SDS011;2760;50.000;9.194;2023-03-01T05:59:21;34.33;;;16.27;;
5475;SDS011;2760;50.000;9.194;2023-03-01T06:01:50;24.00;;;14.00;;
5475;SDS011;2760;50.000;9.194;2023-03-01T06:04:17;22.30;;;12.47;;
5475;SDS011;2760;50.000;9.194;2023-03-01T06:06:44;25.07;;;14.33;;
5475;SDS011;2760;50.000;9.194;2023-03-01T06:09:11;32.73;;;14.43;;
5475;SDS011;2760;50.000;9.194;2023-03-01T06:11:38;27.00;;;14.83;;
5475;SDS011;2760;50.000;9.194;2023-03-01T06:14:05;28.00;;;13.63;;
5475;SDS011;2760;50.000;9.194;2023-03-01T06:16:35;20.67;;;12.03;;
5475;SDS011;2760;50.000;9.194;2023-03-01T06:19:03;22.63;;;14.30;;
5475;SDS011;2760;50.000;9.194;2023-03-01T06:21:31;24.20;;;14.53;;
5475;SDS011;2760;50.000;9.194;2023-03-01T06:23:58;26.03;;;14.10;;
5475;SDS011;2760;50.000;9.194;2023-03-01T06:26:24;25.57;;;13.77;;
5475;SDS011;2760;50.000;9.194;2023-03-01T06:28:51;25.27;;;15.33;;
5475;SDS011;2760;50.000;9.194;2023-03-01T06:31:18;25.70;;;14.57;;
5475;SDS011;2760;50.000;9.194;2023-03-01T06:33:45;29.10;;;15.53;;
5475;SDS011;2760;50.000;9.194;2023-03-01T06:36:14;28.00;;;15.13;;
5475;SDS011;2760;50.000;9.194;2023-03-01T06:38:44;27.93;;;13.80;;
5475;SDS011;2760;50.000;9.194;2023-03-01T06:41:11;31.50;;;13.90;;
5475;SDS011;2760;50.000;9.194;2023-03-01T06:43:37;28.33;;;14.77;;
5475;SDS011;2760;50.000;9.194;2023-03-01T06:46:05;23.53;;;13.03;;
5475;SDS011;2760;50.000;9.194;2023-03-01T06:48:32;26.43;;;13.43;;
5475;SDS011;2760;50.000;9.194;2023-03-01T06:50:59;28.23;;;14.30;;
5475;SDS011;2760;50.000;9.194;2023-03-01T06:53:28;22.47;;;11.80;;
5475;SDS011;2760;50.000;9.194;2023-03-01T06:55:56;24.80;;;13.60;;
5475;SDS011;2760;50.000;9.194;2023-03-01T06:58:24;22.67;;;12.47;;
5475;SDS011;2760;50.000;9.194;2023-03-01T07:00:51;33.63;;;14.10;;
5475;SDS011;2760;50.000;9.194;2023-03-01T07:03:18;24.23;;;13.03;;
5475;SDS011;2760;50.000;9.194;2023-03-01T07:05:45;28.97;;;11.30;;
5475;SDS011;2760;50.000;9.194;2023-03-01T07:08:16;23.17;;;14.00;;
5475;SDS011;2760;50.000;9.194;2023-03-01T07:10:45;27.70;;;13.73;;
5475;SDS011;2760;50.000;9.194;2023-03-01T07:13:12;29.73;;;13.40;;
5475;SDS011;2760;50.000;9.194;2023-03-01T07:15:39;29.73;;;13.73;;
5475;SDS011;2760;50.000;9.194;2023-03-01T07:18:06;19.60;;;11.90;;
5475;SDS011;2760;50.000;9.194;2023-03-01T07:20:34;22.50;;;13.20;;
5475;SDS011;2760;50.000;9.194;2023-03-01T07:23:01;29.43;;;14.43;;
5475;SDS011;2760;50.000;9.194;2023-03-01T07:25:28;21.50;;;12.00;;
5475;SDS011;2760;50.000;9.194;2023-03-01T07:27:56;27.90;;;13.57;;
5475;SDS011;2760;50.000;9.194;2023-03-01T07:30:24;21.20;;;13.10;;
5475;SDS011;2760;50.000;9.194;2023-03-01T07:32:53;20.30;;;12.33;;
5475;SDS011;2760;50.000;9.194;2023-03-01T07:35:20;27.20;;;13.70;;
5475;SDS011;2760;50.000;9.194;2023-03-01T07:37:47;24.50;;;12.90;;
5475;SDS011;2760;50.000;9.194;2023-03-01T07:40:14;22.73;;;13.20;;
5475;SDS011;2760;50.000;9.194;2023-03-01T07:42:41;22.73;;;13.57;;
5475;SDS011;2760;50.000;9.194;2023-03-01T07:45:10;21.67;;;12.20;;
5475;SDS011;2760;50.000;9.194;2023-03-01T07:47:39;24.90;;;13.07;;
5475;SDS011;2760;50.000;9.194;2023-03-01T07:50:06;28.33;;;13.33;;
5475;SDS011;2760;50.000;9.194;2023-03-01T07:52:34;24.80;;;13.07;;
5475;SDS011;2760;50.000;9.194;2023-03-01T07:55:01;20.30;;;12.83;;
5475;SDS011;2760;50.000;9.194;2023-03-01T07:57:28;24.27;;;14.90;;
5475;SDS011;2760;50.000;9.194;2023-03-01T07:59:55;21.73;;;13.50;;
5475;SDS011;2760;50.000;9.194;2023-03-01T08:02:23;23.47;;;14.10;;
5475;SDS011;2760;50.000;9.194;2023-03-01T08:04:53;21.47;;;13.00;;
5475;SDS011;2760;50.000;9.194;2023-03-01T08:07:19;28.73;;;14.00;;
5475;SDS011;2760;50.000;9.194;2023-03-01T08:09:47;21.33;;;13.00;;
5475;SDS011;2760;50.000;9.194;2023-03-01T08:12:14;24.43;;;13.13;;
5475;SDS011;2760;50.000;9.194;2023-03-01T08:14:42;25.77;;;15.60;;
5475;SDS011;2760;50.000;9.194;2023-03-01T08:17:08;19.63;;;13.07;;
5475;SDS011;2760;50.000;9.194;2023-03-01T08:19:37;25.00;;;13.97;;
5475;SDS011;2760;50.000;9.194;2023-03-01T08:22:04;24.23;;;14.00;;
5475;SDS011;2760;50.000;9.194;2023-03-01T08:24:31;23.90;;;14.67;;
5475;SDS011;2760;50.000;9.194;2023-03-01T08:26:58;21.30;;;12.63;;
5475;SDS011;2760;50.000;9.194;2023-03-01T08:29:27;21.33;;;12.70;;
5475;SDS011;2760;50.000;9.194;2023-03-01T08:31:56;25.03;;;12.80;;
5475;SDS011;2760;50.000;9.194;2023-03-01T08:34:23;27.53;;;13.93;;
5475;SDS011;2760;50.000;9.194;2023-03-01T08:36:51;24.50;;;13.50;;
5475;SDS011;2760;50.000;9.194;2023-03-01T08:39:19;23.47;;;13.10;;
5475;SDS011;2760;50.000;9.194;2023-03-01T08:41:46;27.40;;;15.47;;
5475;SDS011;2760;50.000;9.194;2023-03-01T08:44:14;21.80;;;13.70;;
5475;SDS011;2760;50.000;9.194;2023-03-01T08:46:42;24.03;;;12.93;;
5475;SDS011;2760;50.000;9.194;2023-03-01T08:49:11;20.77;;;12.30;;
5475;SDS011;2760;50.000;9.194;2023-03-01T08:51:40;26.30;;;12.80;;
5475;SDS011;2760;50.000;9.194;2023-03-01T08:54:11;23.80;;;14.40;;
5475;SDS011;2760;50.000;9.194;2023-03-01T08:56:40;24.63;;;13.97;;
5475;SDS011;2760;50.000;9.194;2023-03-01T08:59:07;20.43;;;13.50;;
5475;SDS011;2760;50.000;9.194;2023-03-01T09:01:34;18.93;;;12.77;;
5475;SDS011;2760;50.000;9.194;2023-03-01T09:04:03;33.97;;;13.43;;
5475;SDS011;2760;50.000;9.194;2023-03-01T09:06:30;13.13;;;8.70;;
5475;SDS011;2760;50.000;9.194;2023-03-01T09:08:58;22.00;;;13.03;;
5475;SDS011;2760;50.000;9.194;2023-03-01T09:11:27;23.53;;;13.43;;
5475;SDS011;2760;50.000;9.194;2023-03-01T09:13:55;22.80;;;13.37;;
5475;SDS011;2760;50.000;9.194;2023-03-01T09:16:22;21.40;;;12.13;;
5475;SDS011;2760;50.000;9.194;2023-03-01T09:18:49;20.90;;;12.30;;
5475;SDS011;2760;50.000;9.194;2023-03-01T09:21:18;20.87;;;12.30;;
5475;SDS011;2760;50.000;9.194;2023-03-01T09:23:46;19.80;;;13.10;;
5475;SDS011;2760;50.000;9.194;2023-03-01T09:26:15;18.30;;;12.73;;
5475;SDS011;2760;50.000;9.194;2023-03-01T09:28:45;21.90;;;12.33;;
5475;SDS011;2760;50.000;9.194;2023-03-01T09:31:13;28.43;;;13.30;;
5475;SDS011;2760;50.000;9.194;2023-03-01T09:33:41;22.33;;;13.53;;
5475;SDS011;2760;50.000;9.194;2023-03-01T09:36:10;25.27;;;14.03;;
5475;SDS011;2760;50.000;9.194;2023-03-01T09:38:39;19.00;;;12.77;;
5475;SDS011;2760;50.000;9.194;2023-03-01T09:41:09;29.63;;;12.63;;
5475;SDS011;2760;50.000;9.194;2023-03-01T09:43:46;26.37;;;13.70;;
5475;SDS011;2760;50.000;9.194;2023-03-01T09:46:19;18.97;;;11.83;;
5475;SDS011;2760;50.000;9.194;2023-03-01T09:48:48;21.67;;;12.63;;
5475;SDS011;2760;50.000;9.194;2023-03-01T09:51:19;18.53;;;10.70;;
5475;SDS011;2760;50.000;9.194;2023-03-01T09:53:52;20.67;;;12.63;;
5475;SDS011;2760;50.000;9.194;2023-03-01T09:56:22;19.80;;;13.13;;
5475;SDS011;2760;50.000;9.194;2023-03-01T09:58:58;20.37;;;13.10;;
5475;SDS011;2760;50.000;9.194;2023-03-01T10:01:34;19.20;;;12.13;;
5475;SDS011;2760;50.000;9.194;2023-03-01T10:04:08;16.63;;;10.30;;
5475;SDS011;2760;50.000;9.194;2023-03-01T10:06:44;20.80;;;12.73;;
5475;SDS011;2760;50.000;9.194;2023-03-01T10:09:18;26.37;;;13.73;;
5475;SDS011;2760;50.000;9.194;2023-03-01T10:11:47;17.37;;;10.90;;
5475;SDS011;2760;50.000;9.194;2023-03-01T10:14:29;21.27;;;11.77;;
5475;SDS011;2760;50.000;9.194;2023-03-01T10:17:01;20.53;;;11.87;;
5475;SDS011;2760;50.000;9.194;2023-03-01T10:19:32;56.03;;;27.20;;
5475;SDS011;2760;50.000;9.194;2023-03-01T10:22:03;19.77;;;12.00;;
5475;SDS011;2760;50.000;9.194;2023-03-01T10:24:35;15.60;;;11.40;;
5475;SDS011;2760;50.000;9.194;2023-03-01T10:27:04;17.43;;;9.33;;
5475;SDS011;2760;50.000;9.194;2023-03-01T10:29:37;22.03;;;12.57;;
5475;SDS011;2760;50.000;9.194;2023-03-01T10:32:09;17.33;;;12.10;;
5475;SDS011;2760;50.000;9.194;2023-03-01T10:34:37;17.83;;;10.47;;
5475;SDS011;2760;50.000;9.194;2023-03-01T10:37:08;21.43;;;11.77;;
5475;SDS011;2760;50.000;9.194;2023-03-01T10:39:37;17.63;;;10.77;;
5475;SDS011;2760;50.000;9.194;2023-03-01T10:42:23;18.80;;;12.00;;
5475;SDS011;2760;50.000;9.194;2023-03-01T10:44:55;23.50;;;12.30;;
5475;SDS011;2760;50.000;9.194;2023-03-01T10:47:23;31.43;;;10.77;;
5475;SDS011;2760;50.000;9.194;2023-03-01T10:49:52;19.50;;;11.07;;
5475;SDS011;2760;50.000;9.194;2023-03-01T10:52:25;16.03;;;10.90;;
5475;SDS011;2760;50.000;9.194;2023-03-01T10:54:56;22.60;;;12.03;;
5475;SDS011;2760;50.000;9.194;2023-03-01T10:57:28;16.17;;;10.73;;
5475;SDS011;2760;50.000;9.194;2023-03-01T11:00:15;16.10;;;11.00;;
5475;SDS011;2760;50.000;9.194;2023-03-01T11:02:47;13.03;;;10.20;;
5475;SDS011;2760;50.000;9.194;2023-03-01T11:05:22;19.90;;;11.50;;
5475;SDS011;2760;50.000;9.194;2023-03-01T11:07:50;23.10;;;11.97;;
5475;SDS011;2760;50.000;9.194;2023-03-01T11:10:19;17.10;;;11.20;;
5475;SDS011;2760;50.000;9.194;2023-03-01T11:12:48;15.30;;;10.87;;
5475;SDS011;2760;50.000;9.194;2023-03-01T11:15:22;18.40;;;10.97;;
5475;SDS011;2760;50.000;9.194;2023-03-01T11:17:51;15.60;;;10.07;;
5475;SDS011;2760;50.000;9.194;2023-03-01T11:20:21;15.33;;;9.90;;
5475;SDS011;2760;50.000;9.194;2023-03-01T11:22:52;15.57;;;10.20;;
5475;SDS011;2760;50.000;9.194;2023-03-01T11:25:24;16.00;;;10.33;;
5475;SDS011;2760;50.000;9.194;2023-03-01T11:27:53;13.37;;;9.53;;
5475;SDS011;2760;50.000;9.194;2023-03-01T11:30:23;16.03;;;9.30;;
5475;SDS011;2760;50.000;9.194;2023-03-01T11:33:01;13.60;;;9.30;;
5475;SDS011;2760;50.000;9.194;2023-03-01T11:35:35;16.20;;;10.73;;
5475;SDS011;2760;50.000;9.194;2023-03-01T11:38:11;16.40;;;8.60;;
5475;SDS011;2760;50.000;9.194;2023-03-01T11:40:45;17.30;;;10.00;;
5475;SDS011;2760;50.000;9.194;2023-03-01T11:43:19;15.13;;;10.33;;
5475;SDS011;2760;50.000;9.194;2023-03-01T11:45:58;14.63;;;9.97;;
5475;SDS011;2760;50.000;9.194;2023-03-01T11:48:46;15.00;;;9.20;;
5475;SDS011;2760;50.000;9.194;2023-03-01T11:51:21;14.47;;;10.50;;
5475;SDS011;2760;50.000;9.194;2023-03-01T11:53:58;11.97;;;9.13;;
5475;SDS011;2760;50.000;9.194;2023-03-01T11:56:34;16.60;;;9.47;;
5475;SDS011;2760;50.000;9.194;2023-03-01T12:02:10;14.43;;;9.20;;
5475;SDS011;2760;50.000;9.194;2023-03-01T12:05:02;17.40;;;8.77;;
5475;SDS011;2760;50.000;9.194;2023-03-01T12:07:46;19.20;;;12.40;;
5475;SDS011;2760;50.000;9.194;2023-03-01T12:10:20;17.30;;;10.00;;
5475;SDS011;2760;50.000;9.194;2023-03-01T12:12:58;17.30;;;10.40;;
5475;SDS011;2760;50.000;9.194;2023-03-01T12:15:51;15.73;;;9.13;;
5475;SDS011;2760;50.000;9.194;2023-03-01T12:21:30;21.03;;;11.13;;
5475;SDS011;2760;50.000;9.194;2023-03-01T12:24:21;16.50;;;9.60;;
5475;SDS011;2760;50.000;9.194;2023-03-01T12:27:12;18.73;;;10.53;;
5475;SDS011;2760;50.000;9.194;2023-03-01T12:29:49;13.47;;;8.73;;
5475;SDS011;2760;50.000;9.194;2023-03-01T12:32:24;18.33;;;10.80;;
5475;SDS011;2760;50.000;9.194;2023-03-01T12:35:05;17.17;;;11.97;;
5475;SDS011;2760;50.000;9.194;2023-03-01T12:37:47;13.17;;;7.80;;
5475;SDS011;2760;50.000;9.194;2023-03-01T12:40:25;15.43;;;9.17;;
5475;SDS011;2760;50.000;9.194;2023-03-01T12:43:17;13.40;;;9.53;;
5475;SDS011;2760;50.000;9.194;2023-03-01T12:46:08;10.33;;;8.20;;
5475;SDS011;2760;50.000;9.194;2023-03-01T12:48:45;12.57;;;8.90;;
5475;SDS011;2760;50.000;9.194;2023-03-01T12:51:22;15.87;;;8.57;;
5475;SDS011;2760;50.000;9.194;2023-03-01T12:53:50;13.63;;;9.73;;
5475;SDS011;2760;50.000;9.194;2023-03-01T12:56:20;13.37;;;9.43;;
5475;SDS011;2760;50.000;9.194;2023-03-01T12:58:51;11.23;;;9.10;;
5475;SDS011;2760;50.000;9.194;2023-03-01T13:01:30;18.27;;;9.53;;
5475;SDS011;2760;50.000;9.194;2023-03-01T13:07:08;13.17;;;9.20;;
5475;SDS011;2760;50.000;9.194;2023-03-01T13:09:43;13.90;;;9.50;;
5475;SDS011;2760;50.000;9.194;2023-03-01T13:15:30;12.43;;;8.23;;
5475;SDS011;2760;50.000;9.194;2023-03-01T13:17:59;13.13;;;9.20;;
5475;SDS011;2760;50.000;9.194;2023-03-01T13:20:29;12.30;;;8.33;;
5475;SDS011;2760;50.000;9.194;2023-03-01T13:23:02;12.43;;;8.23;;
5475;SDS011;2760;50.000;9.194;2023-03-01T13:25:32;14.97;;;7.43;;
5475;SDS011;2760;50.000;9.194;2023-03-01T13:31:06;12.80;;;7.80;;
5475;SDS011;2760;50.000;9.194;2023-03-01T13:33:41;13.80;;;8.57;;
5475;SDS011;2760;50.000;9.194;2023-03-01T13:36:09;11.03;;;7.47;;
5475;SDS011;2760;50.000;9.194;2023-03-01T13:39:00;14.30;;;8.90;;
5475;SDS011;2760;50.000;9.194;2023-03-01T13:41:48;11.30;;;7.60;;
5475;SDS011;2760;50.000;9.194;2023-03-01T13:44:20;18.80;;;11.40;;
5475;SDS011;2760;50.000;9.194;2023-03-01T13:46:57;11.03;;;8.30;;
5475;SDS011;2760;50.000;9.194;2023-03-01T13:49:27;13.43;;;8.53;;
5475;SDS011;2760;50.000;9.194;2023-03-01T13:51:56;13.00;;;8.00;;
5475;SDS011;2760;50.000;9.194;2023-03-01T13:54:26;14.07;;;8.57;;
5475;SDS011;2760;50.000;9.194;2023-03-01T13:56:56;15.23;;;8.97;;
5475;SDS011;2760;50.000;9.194;2023-03-01T13:59:25;11.60;;;8.00;;
5475;SDS011;2760;50.000;9.194;2023-03-01T14:01:55;10.80;;;7.80;;
5475;SDS011;2760;50.000;9.194;2023-03-01T14:04:24;11.23;;;8.33;;
5475;SDS011;2760;50.000;9.194;2023-03-01T14:07:08;13.03;;;8.27;;
5475;SDS011;2760;50.000;9.194;2023-03-01T14:09:39;14.13;;;8.20;;
5475;SDS011;2760;50.000;9.194;2023-03-01T14:15:00;12.83;;;7.43;;
5475;SDS011;2760;50.000;9.194;2023-03-01T14:20:28;8.60;;;7.07;;
5475;SDS011;2760;50.000;9.194;2023-03-01T14:22:58;11.40;;;7.70;;
5475;SDS011;2760;50.000;9.194;2023-03-01T14:25:30;12.67;;;8.37;;
5475;SDS011;2760;50.000;9.194;2023-03-01T14:28:00;15.10;;;9.50;;
5475;SDS011;2760;50.000;9.194;2023-03-01T14:30:31;10.97;;;7.50;;
5475;SDS011;2760;50.000;9.194;2023-03-01T14:33:02;10.97;;;7.73;;
5475;SDS011;2760;50.000;9.194;2023-03-01T14:35:32;15.80;;;7.23;;
5475;SDS011;2760;50.000;9.194;2023-03-01T14:38:00;15.70;;;7.63;;
5475;SDS011;2760;50.000;9.194;2023-03-01T14:40:28;10.47;;;6.53;;
5475;SDS011;2760;50.000;9.194;2023-03-01T14:43:00;8.97;;;5.57;;
5475;SDS011;2760;50.000;9.194;2023-03-01T14:45:34;8.33;;;5.93;;
5475;SDS011;2760;50.000;9.194;2023-03-01T14:48:02;12.83;;;8.70;;
5475;SDS011;2760;50.000;9.194;2023-03-01T14:50:32;16.40;;;9.33;;
5475;SDS011;2760;50.000;9.194;2023-03-01T14:53:01;16.97;;;11.27;;
5475;SDS011;2760;50.000;9.194;2023-03-01T14:55:33;16.37;;;10.67;;
5475;SDS011;2760;50.000;9.194;2023-03-01T14:58:03;15.10;;;9.13;;
5475;SDS011;2760;50.000;9.194;2023-03-01T15:00:31;24.90;;;11.43;;
5475;SDS011;2760;50.000;9.194;2023-03-01T15:03:00;21.10;;;10.27;;
5475;SDS011;2760;50.000;9.194;2023-03-01T15:05:34;15.10;;;7.70;;
5475;SDS011;2760;50.000;9.194;2023-03-01T15:08:02;16.23;;;10.63;;
5475;SDS011;2760;50.000;9.194;2023-03-01T15:10:33;17.40;;;10.03;;
5475;SDS011;2760;50.000;9.194;2023-03-01T15:13:09;16.10;;;8.77;;
5475;SDS011;2760;50.000;9.194;2023-03-01T15:15:38;13.37;;;6.90;;
5475;SDS011;2760;50.000;9.194;2023-03-01T15:18:15;13.63;;;8.90;;
5475;SDS011;2760;50.000;9.194;2023-03-01T15:20:43;21.00;;;10.30;;
5475;SDS011;2760;50.000;9.194;2023-03-01T15:23:16;16.63;;;11.10;;
5475;SDS011;2760;50.000;9.194;2023-03-01T15:25:48;16.10;;;10.80;;
5475;SDS011;2760;50.000;9.194;2023-03-01T15:28:21;13.70;;;10.30;;
5475;SDS011;2760;50.000;9.194;2023-03-01T15:30:52;15.80;;;10.40;;
5475;SDS011;2760;50.000;9.194;2023-03-01T15:33:29;16.77;;;8.97;;
5475;SDS011;2760;50.000;9.194;2023-03-01T15:36:01;17.83;;;10.43;;